Time;durP1;ratioP1;P1;durP2;ratioP2;P2;SDS_P1;SDS_P2;PMS_P1;PMS_P2;Temp;Humidity;BMP_temperature;BMP_pressure;BME280_temperature;BME280_humidity;BME280_pressure;Samples;Min_cycle;Max_cycle;Signal;HPM_P1;HPM_P2
2023/12/03 00:00:00;;;;;;;23.40;8.23;;;;;;;8.98;42.61;101711.41;5067615;28;20024;-60
2023/12/03 00:02:26;;;;;;;23.88;8.80;;;;;;;8.97;42.67;101725.72;5067652;28;20033;-60
2023/12/03 00:04:52;;;;;;;24.38;8.15;;;;;;;8.95;42.73;101714.28;5066052;28;20040;-60
2023/12/03 00:07:19;;;;;;;28.63;9.35;;;;;;;8.91;43.05;101714.53;5067800;28;20403;-60
2023/12/03 00:09:46;;;;;;;25.63;9.07;;;;;;;8.88;42.79;101720.09;5067264;28;20399;-60
2023/12/03 00:12:12;;;;;;;24.67;9.23;;;;;;;8.84;43.08;101702.53;5058307;28;20033;-60
2023/12/03 00:14:37;;;;;;;22.10;9.88;;;;;;;8.81;42.91;101721.44;5057525;28;20521;-60
2023/12/03 00:17:02;;;;;;;18.42;8.35;;;;;;;8.76;43.07;101719.06;5075275;28;20124;-60
2023/12/03 00:19:28;;;;;;;23.48;9.85;;;;;;;8.71;41.95;101705.97;5057299;28;20408;-60
2023/12/03 00:21:53;;;;;;;22.35;8.98;;;;;;;8.70;42.59;101717.63;5040712;28;20032;-60
2023/12/03 00:24:19;;;;;;;20.10;8.65;;;;;;;8.69;42.78;101713.22;5073592;28;20036;-60
2023/12/03 00:26:44;;;;;;;25.55;8.68;;;;;;;8.64;42.30;101712.66;5091125;28;20040;-60
2023/12/03 00:29:13;;;;;;;28.40;9.35;;;;;;;8.64;41.84;101722.47;5090712;28;20041;-60
2023/12/03 00:31:38;;;;;;;23.55;9.02;;;;;;;8.60;42.57;101710.25;5075080;28;20036;-60
2023/12/03 00:34:04;;;;;;;20.85;10.07;;;;;;;8.61;43.27;101720.00;5056966;28;20040;-60
2023/12/03 00:36:29;;;;;;;21.23;8.98;;;;;;;8.54;42.45;101711.50;5057057;28;20036;-60
2023/12/03 00:38:55;;;;;;;27.73;9.32;;;;;;;8.53;43.01;101711.59;5074815;28;20032;-60
2023/12/03 00:41:20;;;;;;;20.52;8.27;;;;;;;8.49;42.79;101708.25;5056748;28;20033;-60
2023/12/03 00:43:46;;;;;;;21.10;9.55;;;;;;;8.48;43.13;101717.25;5074893;28;20040;-60
2023/12/03 00:46:11;;;;;;;30.48;9.50;;;;;;;8.45;42.61;101714.75;5074748;28;20511;-60
2023/12/03 00:48:38;;;;;;;24.48;10.23;;;;;;;8.44;42.20;101715.69;5072976;28;20071;-60
2023/12/03 00:51:04;;;;;;;23.55;9.15;;;;;;;8.40;42.57;101711.50;5056862;28;20563;-60
2023/12/03 00:53:30;;;;;;;22.02;9.95;;;;;;;8.39;42.74;101708.91;5074689;28;20124;-60
2023/12/03 00:55:55;;;;;;;27.50;9.30;;;;;;;8.35;43.17;101707.41;5056694;28;20033;-60
2023/12/03 00:58:21;;;;;;;29.05;11.00;;;;;;;8.35;43.16;101713.56;5074793;28;20044;-60
2023/12/03 01:00:46;;;;;;;26.15;9.98;;;;;;;8.33;42.52;101718.16;5056980;28;20430;-60
2023/12/03 01:03:12;;;;;;;30.08;9.45;;;;;;;8.35;42.77;101716.25;5078777;28;20063;-60
2023/12/03 01:05:37;;;;;;;24.27;8.43;;;;;;;8.33;42.62;101707.47;5060904;28;20040;-60
2023/12/03 01:08:03;;;;;;;29.20;9.30;;;;;;;8.35;43.21;101716.25;5078987;28;20029;-60
2023/12/03 01:10:28;;;;;;;19.10;8.05;;;;;;;8.36;42.96;101717.09;5074308;28;20388;-60
2023/12/03 01:12:53;;;;;;;30.75;10.48;;;;;;;8.36;42.92;101723.31;5073333;28;20511;-60
2023/12/03 01:15:19;;;;;;;27.30;9.48;;;;;;;8.36;42.82;101727.78;5073622;28;20029;-60
2023/12/03 01:17:44;;;;;;;25.60;9.13;;;;;;;8.35;43.56;101724.25;5055391;28;20035;-60
2023/12/03 01:20:10;;;;;;;21.15;9.38;;;;;;;8.37;42.87;101725.03;5074111;28;20025;-60
2023/12/03 01:22:35;;;;;;;17.90;7.97;;;;;;;8.36;42.65;101728.66;5039627;28;20032;-60
2023/12/03 01:25:01;;;;;;;21.05;8.77;;;;;;;8.34;43.20;101733.22;5089752;28;20059;-60
2023/12/03 01:27:26;;;;;;;24.52;8.43;;;;;;;8.31;43.55;101728.09;5056052;28;20040;-60
2023/12/03 01:29:52;;;;;;;17.65;8.90;;;;;;;8.31;43.70;101733.41;5039310;28;20033;-61
2023/12/03 01:32:17;;;;;;;20.35;8.02;;;;;;;8.23;43.55;101727.66;5073920;28;20028;-60
2023/12/03 01:34:43;;;;;;;27.30;10.63;;;;;;;8.22;43.19;101739.25;5073867;28;20112;-60
2023/12/03 01:37:10;;;;;;;29.33;9.48;;;;;;;8.23;43.03;101743.66;5055373;28;20434;-60
2023/12/03 01:39:37;;;;;;;26.63;8.77;;;;;;;8.20;43.76;101739.38;5073812;28;20115;-60
2023/12/03 01:42:03;;;;;;;22.13;9.13;;;;;;;8.20;42.81;101738.50;5073774;28;20039;-60
2023/12/03 01:44:29;;;;;;;22.10;9.38;;;;;;;8.18;43.57;101737.72;5073776;28;20136;-60
2023/12/03 01:46:57;;;;;;;25.50;8.73;;;;;;;8.19;43.34;101744.78;5072325;28;20546;-60
2023/12/03 01:49:22;;;;;;;25.35;8.68;;;;;;;8.22;43.86;101755.28;5038442;28;20066;-60
2023/12/03 01:51:48;;;;;;;22.35;10.43;;;;;;;8.23;43.94;101754.34;5055662;28;20506;-60
2023/12/03 01:54:14;;;;;;;25.73;10.65;;;;;;;8.27;43.38;101755.00;5055719;28;20031;-60
2023/12/03 01:56:39;;;;;;;20.88;8.48;;;;;;;8.29;43.06;101753.97;5055465;28;20037;-60
2023/12/03 01:59:05;;;;;;;19.02;8.27;;;;;;;8.33;44.23;101763.53;5072152;28;20112;-60
2023/12/03 02:01:30;;;;;;;26.95;9.55;;;;;;;8.31;44.27;101757.44;5073180;28;20499;-60
2023/12/03 02:03:55;;;;;;;26.20;9.85;;;;;;;8.35;43.96;101756.28;5089187;28;20033;-61
2023/12/03 02:06:21;;;;;;;23.90;8.10;;;;;;;8.40;43.31;101761.38;5074466;28;20024;-60
2023/12/03 02:08:46;;;;;;;24.48;8.48;;;;;;;8.41;43.75;101769.28;5075303;28;20032;-60
2023/12/03 02:11:12;;;;;;;22.30;8.45;;;;;;;8.46;43.44;101761.84;5075306;28;20034;-60
2023/12/03 02:13:38;;;;;;;21.75;9.13;;;;;;;8.48;43.14;101769.78;5074905;28;20050;-62
2023/12/03 02:16:05;;;;;;;23.25;9.88;;;;;;;8.48;43.54;101765.28;5041895;28;20056;-60
2023/12/03 02:18:32;;;;;;;24.92;9.10;;;;;;;8.51;43.92;101764.25;5055664;28;20058;-60
2023/12/03 02:20:57;;;;;;;22.75;8.90;;;;;;;8.54;43.80;101764.06;5088362;28;20028;-60
2023/12/03 02:23:23;;;;;;;18.67;8.05;;;;;;;8.54;43.38;101764.06;5072871;28;20047;-60
2023/12/03 02:25:50;;;;;;;24.55;8.02;;;;;;;8.60;43.54;101775.22;5072973;28;20020;-60
2023/12/03 02:28:16;;;;;;;25.75;8.77;;;;;;;8.62;43.89;101772.47;5072853;28;20029;-60
2023/12/03 02:30:42;;;;;;;24.40;8.38;;;;;;;8.63;44.04;101776.81;5088214;28;20051;-60
2023/12/03 02:33:07;;;;;;;21.77;8.90;;;;;;;8.61;44.01;101766.25;5072881;28;20051;-60
2023/12/03 02:35:33;;;;;;;23.33;8.40;;;;;;;8.60;43.44;101780.56;5055161;28;20020;-60
2023/12/03 02:37:58;;;;;;;20.77;8.15;;;;;;;8.60;43.68;101777.88;5072989;28;20480;-60
2023/12/03 02:40:23;;;;;;;21.92;8.50;;;;;;;8.61;43.68;101776.94;5038244;28;20137;-60
2023/12/03 02:42:49;;;;;;;20.17;7.93;;;;;;;8.58;43.75;101777.13;5072697;28;20526;-60
2023/12/03 02:45:14;;;;;;;21.15;7.90;;;;;;;8.61;43.89;101778.75;5054766;28;20381;-60
2023/12/03 02:47:39;;;;;;;22.15;8.05;;;;;;;8.62;44.28;101780.47;5054327;28;20071;-60
2023/12/03 02:50:05;;;;;;;21.20;8.20;;;;;;;8.62;44.57;101784.00;5054802;28;20091;-60
2023/12/03 02:52:31;;;;;;;24.05;8.52;;;;;;;8.61;43.58;101774.28;5071418;28;20104;-60
2023/12/03 02:54:57;;;;;;;25.85;9.40;;;;;;;8.66;43.75;101780.19;5054624;28;20484;-60
2023/12/03 02:57:23;;;;;;;22.33;9.38;;;;;;;8.66;44.36;101773.97;5072838;28;20021;-60
2023/12/03 02:59:48;;;;;;;21.88;8.15;;;;;;;8.73;44.41;101786.00;5054476;28;20020;-61
2023/12/03 03:02:15;;;;;;;23.92;8.05;;;;;;;8.72;44.56;101774.47;5072588;28;20024;-60
2023/12/03 03:04:40;;;;;;;22.13;8.32;;;;;;;8.78;43.46;101781.25;5038132;28;20103;-60
2023/12/03 03:07:06;;;;;;;17.83;8.13;;;;;;;8.75;44.26;101768.94;5037897;28;20133;-60
2023/12/03 03:09:31;;;;;;;20.20;8.77;;;;;;;8.77;43.58;101784.84;5054496;28;20025;-60
2023/12/03 03:11:57;;;;;;;19.38;8.65;;;;;;;8.76;44.60;101776.00;5054540;28;20024;-60
2023/12/03 03:14:23;;;;;;;23.85;8.32;;;;;;;8.75;44.29;101778.75;5054476;28;20032;-60
2023/12/03 03:16:49;;;;;;;19.88;7.28;;;;;;;8.75;44.38;101778.75;5054489;28;20032;-61
2023/12/03 03:19:14;;;;;;;19.48;7.72;;;;;;;8.75;44.46;101784.97;5072378;28;20029;-60
2023/12/03 03:21:40;;;;;;;22.33;8.80;;;;;;;8.75;43.97;101787.63;5054323;28;20033;-60
2023/12/03 03:24:06;;;;;;;21.58;7.07;;;;;;;8.76;43.98;101776.00;5054503;28;20029;-60
2023/12/03 03:26:31;;;;;;;28.35;7.85;;;;;;;8.76;43.50;101785.84;5070889;28;20496;-60
2023/12/03 03:28:57;;;;;;;17.50;7.60;;;;;;;8.77;44.22;101793.75;5072024;28;20044;-60
2023/12/03 03:31:22;;;;;;;23.13;7.30;;;;;;;8.76;44.36;101797.38;5054455;28;20033;-60
2023/12/03 03:33:49;;;;;;;19.58;7.72;;;;;;;8.76;44.27;101793.84;5054237;28;20112;-60
2023/12/03 03:36:15;;;;;;;20.10;8.43;;;;;;;8.74;44.04;101793.91;5054399;28;20078;-60
2023/12/03 03:38:42;;;;;;;17.83;7.55;;;;;;;8.71;43.90;101783.44;5054420;28;20028;-60
2023/12/03 03:41:08;;;;;;;18.48;8.18;;;;;;;8.69;44.58;101790.69;5087924;28;20029;-60
2023/12/03 03:43:34;;;;;;;24.55;7.93;;;;;;;8.69;43.54;101790.69;5087629;28;20032;-60
2023/12/03 03:45:59;;;;;;;19.60;7.75;;;;;;;8.68;44.58;101793.47;5054233;28;20039;-60
2023/12/03 03:48:24;;;;;;;22.55;7.68;;;;;;;8.68;44.59;101788.94;5071774;28;20056;-60
2023/12/03 03:50:50;;;;;;;21.02;7.95;;;;;;;8.68;44.68;101799.63;5071971;28;20060;-60
2023/12/03 03:53:15;;;;;;;16.30;6.70;;;;;;;8.66;44.00;101790.00;5054254;28;20484;-60
2023/12/03 03:55:41;;;;;;;21.17;7.55;;;;;;;8.65;44.26;101794.47;5072035;28;20108;-60
2023/12/03 03:58:06;;;;;;;22.45;7.40;;;;;;;8.62;43.93;101784.00;5070819;28;20035;-60
2023/12/03 04:00:31;;;;;;;18.60;7.80;;;;;;;8.60;44.50;101788.56;5057579;28;20028;-60
2023/12/03 04:02:57;;;;;;;17.73;7.35;;;;;;;8.56;44.61;101795.06;5057602;28;20039;-60
2023/12/03 04:05:23;;;;;;;22.70;8.18;;;;;;;8.56;44.38;101805.75;5075449;28;20028;-60
2023/12/03 04:07:49;;;;;;;24.27;8.27;;;;;;;8.54;44.82;101791.59;5040895;28;20480;-60
2023/12/03 04:10:15;;;;;;;20.35;7.95;;;;;;;8.57;43.59;101791.41;5075271;28;20024;-60
2023/12/03 04:12:41;;;;;;;22.27;7.65;;;;;;;8.59;44.25;101789.53;5075325;28;20056;-60
2023/12/03 04:15:07;;;;;;;20.10;7.50;;;;;;;8.62;44.32;101786.69;5075310;28;20063;-60
2023/12/03 04:17:32;;;;;;;29.67;8.75;;;;;;;8.62;44.02;101784.00;5039408;28;20029;-60
2023/12/03 04:19:58;;;;;;;25.23;7.72;;;;;;;8.60;43.98;101774.34;5074052;28;20396;-60
2023/12/03 04:22:23;;;;;;;19.05;7.60;;;;;;;8.61;44.45;101782.28;5057303;28;20047;-60
2023/12/03 04:24:48;;;;;;;18.98;6.70;;;;;;;8.61;44.09;101784.09;5075241;28;20059;-60
2023/12/03 04:27:14;;;;;;;18.33;7.47;;;;;;;8.60;44.56;101796.56;5074103;28;20086;-60
2023/12/03 04:29:40;;;;;;;16.65;6.45;;;;;;;8.58;44.14;101802.97;5075060;28;20071;-60
2023/12/03 04:32:06;;;;;;;18.02;7.75;;;;;;;8.58;43.71;101801.16;5057023;28;20036;-60
2023/12/03 04:34:31;;;;;;;17.95;7.32;;;;;;;8.58;44.04;101795.81;5057199;28;20040;-60
2023/12/03 04:36:57;;;;;;;18.55;7.28;;;;;;;8.54;43.79;101806.78;5037153;28;20040;-60
2023/12/03 04:39:22;;;;;;;17.08;6.45;;;;;;;8.53;44.75;101807.72;5085176;28;20446;-60
2023/12/03 04:41:47;;;;;;;17.50;6.38;;;;;;;8.51;43.65;101813.16;5074962;28;20450;-60
2023/12/03 04:44:13;;;;;;;17.48;7.38;;;;;;;8.49;44.47;101812.38;5074869;28;20119;-60
2023/12/03 04:46:41;;;;;;;23.20;6.85;;;;;;;8.43;44.29;101810.06;5040148;28;20029;-60
2023/12/03 04:49:06;;;;;;;20.23;7.18;;;;;;;8.38;44.17;101817.50;5072902;28;20518;-61
2023/12/03 04:51:32;;;;;;;19.70;7.72;;;;;;;8.31;44.53;101808.16;5090354;28;20039;-60
2023/12/03 04:53:58;;;;;;;22.60;8.27;;;;;;;8.28;43.78;101805.66;5074595;28;20041;-60
2023/12/03 04:56:24;;;;;;;21.33;7.75;;;;;;;8.23;43.53;101806.84;5056784;28;20032;-60
2023/12/03 04:58:49;;;;;;;22.80;8.60;;;;;;;8.22;44.16;101805.97;5090164;28;20031;-60
2023/12/03 05:01:17;;;;;;;17.55;6.85;;;;;;;8.20;44.29;101803.41;5039548;28;20059;-60
2023/12/03 05:03:42;;;;;;;17.92;8.27;;;;;;;8.17;43.43;101808.94;5090138;28;20032;-60
2023/12/03 05:06:08;;;;;;;21.27;7.90;;;;;;;8.14;43.74;101805.56;5074425;28;20040;-60
2023/12/03 05:08:33;;;;;;;22.08;7.60;;;;;;;8.14;43.79;101808.25;5090085;28;20052;-60
2023/12/03 05:11:04;;;;;;;26.98;8.15;;;;;;;8.12;44.04;101804.81;5073129;28;20041;-60
2023/12/03 05:13:30;;;;;;;17.80;7.20;;;;;;;8.08;43.89;101809.47;5073076;28;20024;-60
2023/12/03 05:15:56;;;;;;;18.13;8.38;;;;;;;8.05;43.54;101798.09;5074458;28;20121;-60
2023/12/03 05:18:21;;;;;;;24.02;7.90;;;;;;;8.04;43.51;101801.72;5039584;28;20491;-60
2023/12/03 05:20:46;;;;;;;25.23;8.10;;;;;;;8.06;43.71;101805.16;5072809;28;20033;-60
2023/12/03 05:23:12;;;;;;;22.60;9.15;;;;;;;8.02;44.22;101803.59;5074188;28;20032;-60
2023/12/03 05:25:37;;;;;;;20.55;7.45;;;;;;;8.03;44.62;101816.00;5074542;28;20025;-60
2023/12/03 05:28:03;;;;;;;17.00;7.38;;;;;;;7.97;44.34;101811.03;5076357;28;20094;-60
2023/12/03 05:30:28;;;;;;;16.63;7.25;;;;;;;8.00;44.49;101818.84;5093198;28;20499;-60
2023/12/03 05:32:54;;;;;;;27.83;9.15;;;;;;;8.00;43.86;101821.53;5072174;28;20033;-60
2023/12/03 05:35:19;;;;;;;23.02;7.70;;;;;;;7.97;44.29;101821.69;5073868;28;20029;-60
2023/12/03 05:37:45;;;;;;;19.88;7.40;;;;;;;7.98;43.92;101818.09;5089506;28;20046;-60
2023/12/03 05:40:11;;;;;;;23.20;9.00;;;;;;;7.94;44.10;101809.41;5073696;28;20119;-60
2023/12/03 05:42:36;;;;;;;19.38;7.68;;;;;;;7.94;43.98;101827.22;5089511;28;20032;-60
2023/12/03 05:45:03;;;;;;;21.25;7.30;;;;;;;7.95;44.30;101824.47;5089294;28;20095;-60
2023/12/03 05:47:29;;;;;;;22.83;7.72;;;;;;;7.95;44.66;101829.81;5073419;28;20119;-61
2023/12/03 05:49:54;;;;;;;25.00;7.82;;;;;;;7.95;44.31;101828.94;5039255;28;20040;-60
2023/12/03 05:52:19;;;;;;;22.85;8.50;;;;;;;7.92;43.95;101829.09;5080038;28;20028;-60
2023/12/03 05:54:45;;;;;;;26.23;8.27;;;;;;;7.96;44.07;101835.97;5055502;28;20119;-60
2023/12/03 05:57:10;;;;;;;21.00;8.15;;;;;;;7.92;44.31;101829.97;5055455;28;20032;-60
2023/12/03 05:59:36;;;;;;;19.30;7.05;;;;;;;7.90;43.60;101831.00;5073322;28;20029;-60
2023/12/03 06:02:01;;;;;;;25.63;7.95;;;;;;;7.88;43.81;101833.75;5073316;28;20033;-60
2023/12/03 06:04:26;;;;;;;19.95;8.10;;;;;;;7.84;44.37;101831.34;5089122;28;20443;-60
2023/12/03 06:06:52;;;;;;;18.65;8.05;;;;;;;7.85;44.27;101843.72;5038700;28;20039;-60
2023/12/03 06:09:18;;;;;;;23.55;8.50;;;;;;;7.85;43.76;101838.38;5055215;28;20033;-60
2023/12/03 06:11:44;;;;;;;24.67;8.75;;;;;;;7.83;44.48;101842.97;5073202;28;20108;-60
2023/12/03 06:14:09;;;;;;;26.60;7.00;;;;;;;7.80;44.49;101851.13;5070760;28;20111;-60
2023/12/03 06:16:34;;;;;;;24.50;8.10;;;;;;;7.78;44.38;101851.22;5073048;28;20068;-60
2023/12/03 06:19:00;;;;;;;17.50;7.63;;;;;;;7.77;44.27;101854.84;5055250;28;20040;-60
2023/12/03 06:21:25;;;;;;;20.92;8.85;;;;;;;7.74;43.57;101855.00;5072945;28;20056;-60
2023/12/03 06:23:52;;;;;;;27.67;9.48;;;;;;;7.75;44.30;101861.19;5088969;28;20033;-59
2023/12/03 06:26:17;;;;;;;20.08;7.22;;;;;;;7.77;43.94;101856.63;5073271;28;20060;-60
2023/12/03 06:28:43;;;;;;;18.27;7.80;;;;;;;7.75;43.93;101858.53;5088828;28;20579;-61
2023/12/03 06:31:08;;;;;;;25.38;10.27;;;;;;;7.74;44.00;101862.13;5072673;28;20028;-60
2023/12/03 06:33:33;;;;;;;23.90;9.55;;;;;;;7.74;43.84;101863.00;5056440;28;20059;-60
2023/12/03 06:35:59;;;;;;;18.83;6.65;;;;;;;7.79;43.94;101868.09;5060562;28;20487;-60
2023/12/03 06:38:24;;;;;;;35.38;10.30;;;;;;;7.79;44.81;101854.75;5072652;28;20411;-60
2023/12/03 06:40:50;;;;;;;17.08;6.57;;;;;;;7.79;43.88;101854.75;5054941;28;20029;-60
2023/12/03 06:43:15;;;;;;;20.05;9.07;;;;;;;7.84;43.69;101858.03;5072734;28;20116;-60
2023/12/03 06:45:41;;;;;;;23.20;8.73;;;;;;;7.84;43.96;101858.03;5072737;28;20028;-60
2023/12/03 06:48:06;;;;;;;24.45;8.65;;;;;;;7.83;43.93;101856.28;5088023;28;20053;-60
2023/12/03 06:50:33;;;;;;;28.13;9.13;;;;;;;7.91;44.74;101854.06;5071367;28;20087;-60
2023/12/03 06:52:59;;;;;;;23.20;8.50;;;;;;;7.92;45.23;101855.78;5038193;28;20032;-60
2023/12/03 06:55:24;;;;;;;23.88;8.27;;;;;;;7.91;43.86;101854.06;5054733;28;20557;-60
2023/12/03 06:57:51;;;;;;;27.65;8.48;;;;;;;7.93;43.85;101854.81;5055098;28;20060;-60
2023/12/03 07:00:17;;;;;;;27.58;9.27;;;;;;;7.91;44.90;101852.25;5072878;28;20040;-60
2023/12/03 07:02:42;;;;;;;20.58;9.23;;;;;;;7.91;44.47;101860.25;5072529;28;20403;-60
2023/12/03 07:05:08;;;;;;;27.55;10.50;;;;;;;7.92;44.38;101861.13;5088439;28;20040;-60
2023/12/03 07:07:33;;;;;;;19.00;8.93;;;;;;;7.91;44.17;101854.06;5054867;28;20032;-60
2023/12/03 07:09:58;;;;;;;24.67;7.78;;;;;;;7.85;43.90;101849.06;5037603;28;20033;-60
2023/12/03 07:12:24;;;;;;;22.80;7.53;;;;;;;7.87;44.41;101852.53;5054652;28;20048;-60
2023/12/03 07:14:50;;;;;;;20.85;7.82;;;;;;;7.89;43.52;101853.28;5072449;28;20045;-60
2023/12/03 07:17:16;;;;;;;28.17;8.10;;;;;;;7.88;44.17;101856.88;5071963;28;20033;-60
2023/12/03 07:19:44;;;;;;;26.83;8.65;;;;;;;7.89;44.61;101861.28;5059794;28;20025;-60
2023/12/03 07:22:10;;;;;;;25.38;8.38;;;;;;;7.93;44.50;101868.16;5081707;28;20028;-60
2023/12/03 07:24:37;;;;;;;24.10;8.88;;;;;;;7.92;44.75;101879.78;5081595;28;20514;-60
2023/12/03 07:27:02;;;;;;;21.65;7.95;;;;;;;7.90;43.63;101871.84;5071138;28;20029;-60
2023/12/03 07:29:27;;;;;;;16.67;8.27;;;;;;;7.94;43.50;101875.22;5062979;28;20036;-60
2023/12/03 07:31:53;;;;;;;22.95;8.45;;;;;;;7.93;44.35;101868.16;5081717;28;20493;-62
2023/12/03 07:34:18;;;;;;;21.95;8.00;;;;;;;7.95;44.51;101876.94;5084148;28;20028;-62
2023/12/03 07:36:44;;;;;;;18.58;8.10;;;;;;;7.97;44.27;101880.38;5084862;28;20166;-61
2023/12/03 07:39:10;;;;;;;18.52;7.78;;;;;;;7.94;44.46;101870.75;5086084;28;20028;-60
2023/12/03 07:41:36;;;;;;;19.02;6.95;;;;;;;7.95;43.96;101876.94;5067968;28;20054;-60
2023/12/03 07:44:02;;;;;;;22.10;8.52;;;;;;;8.01;44.28;101882.78;5049856;28;20029;-60
2023/12/03 07:46:27;;;;;;;23.83;8.45;;;;;;;8.02;44.48;101879.19;5067774;28;20085;-62
2023/12/03 07:48:53;;;;;;;23.45;7.95;;;;;;;8.03;44.19;101885.38;5085367;28;20408;-61
2023/12/03 07:51:18;;;;;;;19.73;8.80;;;;;;;8.03;44.54;101869.38;5065898;28;20029;-60
2023/12/03 07:53:44;;;;;;;17.15;7.20;;;;;;;8.07;43.32;101878.91;5064009;28;20040;-61
2023/12/03 07:56:10;;;;;;;18.85;7.00;;;;;;;8.12;43.66;101884.88;5074474;28;20082;-61
2023/12/03 07:58:36;;;;;;;18.48;7.93;;;;;;;8.14;43.70;101872.28;5074394;28;20067;-60
2023/12/03 08:01:01;;;;;;;15.88;6.82;;;;;;;8.17;44.14;101872.09;5056121;28;20033;-60
2023/12/03 08:03:28;;;;;;;19.98;8.88;;;;;;;8.21;44.20;101869.16;5064464;28;20040;-60
2023/12/03 08:05:53;;;;;;;20.30;7.45;;;;;;;8.24;44.22;101876.13;5064632;28;20129;-61
2023/12/03 08:08:19;;;;;;;26.58;10.57;;;;;;;8.33;43.53;101882.78;5084063;28;20044;-61
2023/12/03 08:10:44;;;;;;;18.45;7.35;;;;;;;8.40;43.56;101885.03;5082087;28;20119;-61
2023/12/03 08:13:09;;;;;;;17.13;7.03;;;;;;;8.44;43.56;101885.69;5048796;28;20376;-61
2023/12/03 08:15:35;;;;;;;16.48;6.53;;;;;;;8.49;43.56;101883.59;5082467;28;20027;-61
2023/12/03 08:18:00;;;;;;;19.60;7.53;;;;;;;8.51;44.06;101882.59;5083058;28;20028;-61
2023/12/03 08:20:26;;;;;;;15.88;7.15;;;;;;;8.53;43.83;101870.00;5065869;28;20024;-61
2023/12/03 08:22:51;;;;;;;21.25;6.97;;;;;;;8.60;43.48;101886.50;5083675;28;20028;-61
2023/12/03 08:25:16;;;;;;;17.40;6.85;;;;;;;8.61;43.79;101880.22;5085498;28;20024;-61
2023/12/03 08:27:42;;;;;;;16.08;7.00;;;;;;;8.67;43.75;101886.06;5084899;28;20505;-61
2023/12/03 08:30:08;;;;;;;19.08;7.65;;;;;;;8.69;43.50;101881.50;5049169;28;20052;-61
2023/12/03 08:32:34;;;;;;;20.02;7.35;;;;;;;8.73;43.52;101883.03;5068007;28;20407;-61
2023/12/03 08:34:59;;;;;;;20.35;6.85;;;;;;;8.75;43.40;101886.47;5066177;28;20030;-61
2023/12/03 08:37:24;;;;;;;20.05;7.35;;;;;;;8.76;43.22;101888.19;5084386;28;20029;-61
2023/12/03 08:39:50;;;;;;;19.30;6.78;;;;;;;8.77;43.65;101884.56;5075779;28;20433;-61
2023/12/03 08:42:16;;;;;;;18.67;6.57;;;;;;;8.76;43.16;101872.16;5069743;28;20119;-61
2023/12/03 08:44:41;;;;;;;17.00;6.30;;;;;;;8.75;42.99;101865.09;5045787;28;20028;-61
2023/12/03 08:47:08;;;;;;;15.98;6.10;;;;;;;8.76;43.37;101882.84;5056802;28;20036;-61
2023/12/03 08:49:34;;;;;;;12.52;5.28;;;;;;;8.79;43.64;101879.13;5074794;28;20082;-61
2023/12/03 08:51:59;;;;;;;12.73;5.15;;;;;;;8.80;42.97;101886.19;5074798;28;20115;-61
2023/12/03 08:54:25;;;;;;;18.73;6.32;;;;;;;8.82;43.18;101892.31;5056841;28;20063;-61
2023/12/03 08:56:50;;;;;;;14.38;6.20;;;;;;;8.82;43.55;101892.31;5074584;28;20028;-61
2023/12/03 08:59:15;;;;;;;19.70;5.97;;;;;;;8.88;42.77;101888.41;5056774;28;20036;-62
2023/12/03 09:01:41;;;;;;;12.65;5.30;;;;;;;8.97;42.78;101895.84;5074313;28;20557;-62
2023/12/03 09:04:06;;;;;;;12.77;6.20;;;;;;;8.97;43.15;101882.50;5074554;28;20090;-62
2023/12/03 09:06:32;;;;;;;15.20;6.68;;;;;;;9.11;43.29;101893.19;5074424;28;20086;-60
2023/12/03 09:08:57;;;;;;;14.95;5.93;;;;;;;9.17;42.75;101903.53;5074345;28;20033;-62
2023/12/03 09:11:23;;;;;;;17.02;6.32;;;;;;;9.23;43.02;101890.66;5074322;28;20046;-60
2023/12/03 09:13:48;;;;;;;12.50;5.38;;;;;;;9.33;42.68;101893.59;5073446;28;20085;-60
2023/12/03 09:16:14;;;;;;;13.02;5.88;;;;;;;9.45;43.35;101891.97;5074380;28;20511;-60
2023/12/03 09:18:39;;;;;;;13.68;5.28;;;;;;;9.54;43.37;101894.94;5055948;28;20029;-60
2023/12/03 09:21:08;;;;;;;16.90;6.47;;;;;;;9.67;42.73;101897.69;5074097;28;20496;-59
2023/12/03 09:23:34;;;;;;;19.45;6.90;;;;;;;9.74;42.94;101894.53;5072891;28;20115;-60
2023/12/03 09:26:00;;;;;;;17.13;7.15;;;;;;;9.88;43.05;101897.19;5074169;28;20036;-61
2023/12/03 09:28:25;;;;;;;17.58;6.97;;;;;;;10.01;42.51;101901.75;5056084;28;20453;-61
2023/12/03 09:30:51;;;;;;;11.68;5.75;;;;;;;10.09;42.52;101894.94;5072776;28;20043;-61
2023/12/03 09:33:17;;;;;;;29.80;10.45;;;;;;;10.16;42.92;101900.81;5072896;28;20565;-60
2023/12/03 09:35:42;;;;;;;15.38;6.50;;;;;;;10.25;42.31;101910.88;5073888;28;20028;-60
2023/12/03 09:38:07;;;;;;;18.48;5.95;;;;;;;10.27;42.52;101900.97;5062431;28;20113;-61
2023/12/03 09:40:33;;;;;;;11.38;5.88;;;;;;;10.31;42.49;101905.13;5055964;28;20030;-60
2023/12/03 09:43:03;;;;;;;12.80;6.47;;;;;;;10.31;42.06;101905.13;5073352;28;20171;-60
2023/12/03 09:45:31;;;;;;;12.05;5.88;;;;;;;10.34;41.88;101905.78;5055796;28;20056;-59
2023/12/03 09:48:01;;;;;;;16.20;5.43;;;;;;;10.36;42.19;101906.53;5055798;28;20124;-60
2023/12/03 09:50:31;;;;;;;11.18;5.32;;;;;;;10.37;41.95;101910.09;5056589;28;20048;-61
2023/12/03 09:52:56;;;;;;;13.43;4.95;;;;;;;10.36;41.42;101908.34;5057939;28;20494;-61
2023/12/03 09:55:25;;;;;;;16.10;5.35;;;;;;;10.42;41.98;101905.28;5057987;28;20017;-60
2023/12/03 09:57:54;;;;;;;13.05;5.45;;;;;;;10.46;41.92;101914.84;5056778;28;20094;-61
2023/12/03 10:00:21;;;;;;;12.55;5.32;;;;;;;10.45;41.73;101918.47;5055713;28;20085;-61
2023/12/03 10:02:48;;;;;;;14.80;5.57;;;;;;;10.49;41.55;101917.31;5055947;28;20028;-60
2023/12/03 10:05:13;;;;;;;16.15;6.20;;;;;;;10.48;42.16;101902.19;5038912;28;20036;-61
2023/12/03 10:07:39;;;;;;;12.52;5.65;;;;;;;10.50;41.27;101902.94;5055322;28;20361;-61
2023/12/03 10:10:05;;;;;;;12.75;5.47;;;;;;;10.50;41.72;101911.84;5055100;28;20119;-61
2023/12/03 10:12:41;;;;;;;13.30;6.65;;;;;;;10.52;41.69;101915.28;5038742;28;20028;-60
2023/12/03 10:15:09;;;;;;;14.15;5.95;;;;;;;10.50;41.42;101902.94;5073171;28;20499;-61
2023/12/03 10:17:34;;;;;;;14.90;6.15;;;;;;;10.44;41.74;101884.63;5055365;28;20078;-60
2023/12/03 10:20:20;;;;;;;15.07;7.32;;;;;;;10.52;41.98;101888.50;5073137;28;20467;-60
2023/12/03 10:22:45;;;;;;;13.65;5.93;;;;;;;10.57;41.67;101881.97;5055364;28;20063;-60
2023/12/03 10:25:11;;;;;;;17.45;6.53;;;;;;;10.67;41.77;101886.59;5073095;28;20067;-60
2023/12/03 10:27:37;;;;;;;15.35;5.72;;;;;;;10.74;41.52;101885.25;5054887;28;20037;-62
2023/12/03 10:30:02;;;;;;;12.07;5.43;;;;;;;10.77;42.02;101877.00;5055196;28;20043;-63
2023/12/03 10:32:28;;;;;;;13.73;6.07;;;;;;;10.79;41.83;101880.41;5072945;28;20554;-63
2023/12/03 10:34:55;;;;;;;13.10;5.53;;;;;;;10.80;41.46;101874.09;5055093;28;20396;-63
2023/12/03 10:37:20;;;;;;;13.73;6.03;;;;;;;10.79;41.67;101871.50;5055029;28;20162;-62
2023/12/03 10:39:46;;;;;;;13.55;5.97;;;;;;;10.79;41.17;101868.84;5038209;28;20123;-62
2023/12/03 10:42:12;;;;;;;12.15;5.68;;;;;;;10.81;41.38;101866.91;5055251;28;20033;-62
2023/12/03 10:44:40;;;;;;;13.98;6.22;;;;;;;10.84;41.42;101866.69;5038346;28;20031;-63
2023/12/03 10:47:07;;;;;;;11.77;5.53;;;;;;;10.85;41.33;101863.94;5055124;28;20028;-63
2023/12/03 10:49:33;;;;;;;16.52;6.05;;;;;;;10.88;41.41;101866.41;5055129;28;20029;-62
2023/12/03 10:51:59;;;;;;;14.43;6.55;;;;;;;10.86;41.19;101860.25;5038308;28;20036;-63
2023/12/03 10:54:25;;;;;;;16.38;5.78;;;;;;;10.87;41.54;101861.13;5055153;28;20107;-62
2023/12/03 10:56:54;;;;;;;15.40;6.35;;;;;;;10.88;41.21;101853.00;5054893;28;20094;-62
2023/12/03 10:59:22;;;;;;;22.00;6.38;;;;;;;10.98;40.76;101858.56;5072765;28;20025;-62
2023/12/03 11:01:53;;;;;;;17.98;6.90;;;;;;;11.08;40.70;101852.44;5054792;28;20582;-63
2023/12/03 11:04:34;;;;;;;16.30;7.32;;;;;;;11.17;41.08;101847.44;5054733;28;20085;-62
2023/12/03 11:07:03;;;;;;;16.15;5.78;;;;;;;11.25;40.59;101845.06;5054787;28;20073;-62
2023/12/03 11:09:28;;;;;;;15.45;6.30;;;;;;;11.27;40.84;101835.94;5057693;28;20037;-62
2023/12/03 11:11:54;;;;;;;17.13;7.78;;;;;;;11.31;40.79;101833.88;5042196;28;20500;-63
2023/12/03 11:14:19;;;;;;;18.90;6.60;;;;;;;11.35;40.40;101832.69;5042216;28;20162;-63
2023/12/03 11:17:08;;;;;;;13.90;6.95;;;;;;;11.36;40.45;101831.75;5088480;28;20039;-62